Time;durP1;ratioP1;P1;durP2;ratioP2;P2;SDS_P1;SDS_P2;PMS_P1;PMS_P2;Temp;Humidity;BMP_temperature;BMP_pressure;BME280_temperature;BME280_humidity;BME280_pressure;Samples;Min_cycle;Max_cycle;Signal;HPM_P1;HPM_P2
2023/01/29 00:02:04;;;;;;;22.50;13.02;;;;;;;0.75;100.00;102880.78;5057630;28;20048;-51
2023/01/29 00:04:33;;;;;;;24.23;13.32;;;;;;;0.71;100.00;102873.84;5059851;28;20040;-53
2023/01/29 00:07:02;;;;;;;21.65;11.65;;;;;;;0.73;100.00;102872.16;5056066;28;20036;-52
2023/01/29 00:09:31;;;;;;;19.80;11.65;;;;;;;0.71;100.00;102882.50;5060019;28;20048;-53
2023/01/29 00:11:59;;;;;;;20.80;12.50;;;;;;;0.71;100.00;102874.75;5059625;28;20476;-51
2023/01/29 00:14:27;;;;;;;22.23;12.65;;;;;;;0.69;100.00;102871.25;5060340;28;20507;-53
2023/01/29 00:16:55;;;;;;;23.92;12.73;;;;;;;0.71;100.00;102869.56;5056337;28;20066;-52
2023/01/29 00:19:24;;;;;;;20.92;12.73;;;;;;;0.73;100.00;102867.84;5050482;28;20480;-52
2023/01/29 00:21:55;;;;;;;23.30;12.13;;;;;;;0.73;100.00;102870.44;5052080;28;20041;-53
2023/01/29 00:24:24;;;;;;;23.45;11.95;;;;;;;0.74;100.00;102869.59;5051377;28;20121;-49
2023/01/29 00:26:52;;;;;;;22.38;12.57;;;;;;;0.72;100.00;102868.69;5048459;28;20451;-51
2023/01/29 00:29:20;;;;;;;21.40;11.95;;;;;;;0.76;100.00;102864.41;5049679;28;20041;-49
2023/01/29 00:31:49;;;;;;;21.98;11.98;;;;;;;0.78;100.00;102862.72;5053766;28;20045;-52
2023/01/29 00:34:17;;;;;;;22.25;11.82;;;;;;;0.78;100.00;102857.53;5074600;28;20384;-50
2023/01/29 00:36:45;;;;;;;20.30;11.55;;;;;;;0.74;100.00;102848.84;5054859;28;20057;-49
2023/01/29 00:39:13;;;;;;;21.10;11.70;;;;;;;0.72;100.00;102850.56;5055077;28;20041;-49
2023/01/29 00:47:32;;;;;;;21.60;11.75;;;;;;;0.72;100.00;102827.25;5057121;28;20070;-53
2023/01/29 00:50:01;;;;;;;20.77;11.80;;;;;;;0.71;100.00;102817.75;5057421;28;20442;-52
2023/01/29 00:52:29;;;;;;;20.88;12.25;;;;;;;0.67;100.00;102821.19;5054308;28;20103;-51
2023/01/29 00:54:59;;;;;;;21.85;12.50;;;;;;;0.67;100.00;102816.00;5056290;28;20068;-51
2023/01/29 00:57:31;;;;;;;23.48;12.80;;;;;;;0.67;100.00;102824.63;5058393;28;20057;-50
2023/01/29 00:59:59;;;;;;;23.98;13.23;;;;;;;0.66;100.00;102833.25;5058204;28;20055;-51
2023/01/29 01:05:17;;;;;;;25.65;12.80;;;;;;;0.69;100.00;102834.13;5057255;28;20516;-51
2023/01/29 01:07:47;;;;;;;20.67;11.55;;;;;;;0.71;100.00;102833.31;5058492;28;20057;-48
2023/01/29 01:10:23;;;;;;;23.25;13.65;;;;;;;0.71;100.00;102835.00;5054055;28;20044;-49
2023/01/29 01:12:55;;;;;;;24.98;13.25;;;;;;;0.70;100.00;102836.75;5055437;28;20082;-48
2023/01/29 01:15:25;;;;;;;26.13;13.98;;;;;;;0.67;100.00;102832.41;5055126;28;20542;-52
2023/01/29 01:17:54;;;;;;;21.83;12.73;;;;;;;0.69;100.00;102835.00;5055071;28;20061;-52
2023/01/29 01:20:23;;;;;;;26.55;12.55;;;;;;;0.69;100.00;102840.19;5056323;28;20549;-52
2023/01/29 01:22:51;;;;;;;25.30;13.48;;;;;;;0.70;100.00;102839.31;5058122;28;20049;-53
2023/01/29 01:25:20;;;;;;;24.08;13.45;;;;;;;0.70;100.00;102839.31;5058321;28;20132;-63
2023/01/29 01:27:52;;;;;;;21.42;13.00;;;;;;;0.68;100.00;102830.66;5058216;28;20377;-63
2023/01/29 01:30:22;;;;;;;23.45;13.10;;;;;;;0.71;100.00;102830.72;5058318;28;20053;-63
2023/01/29 01:32:50;;;;;;;25.38;13.57;;;;;;;0.71;100.00;102827.22;5057961;28;20063;-63
2023/01/29 01:35:19;;;;;;;26.95;13.80;;;;;;;0.67;100.00;102827.22;5053535;28;20562;-63
2023/01/29 01:37:47;;;;;;;24.83;13.48;;;;;;;0.68;100.00;102830.66;5054403;28;20504;-63
2023/01/29 01:40:19;;;;;;;24.70;13.80;;;;;;;0.60;100.00;102829.72;5058261;28;20480;-63
2023/01/29 01:42:49;;;;;;;27.55;14.43;;;;;;;0.63;100.00;102822.00;5055504;28;20053;-63
2023/01/29 01:45:26;;;;;;;27.23;14.80;;;;;;;0.59;100.00;102828.88;5065424;28;20057;-63
2023/01/29 01:47:59;;;;;;;24.77;13.68;;;;;;;0.57;100.00;102824.53;5054925;28;20053;-63
2023/01/29 01:50:33;;;;;;;28.27;14.20;;;;;;;0.51;100.00;102825.34;5054149;28;20060;-63
2023/01/29 01:53:05;;;;;;;25.05;15.05;;;;;;;0.50;100.00;102821.91;5052934;28;20057;-62
2023/01/29 01:55:37;;;;;;;27.40;15.27;;;;;;;0.46;100.00;102821.84;5051086;28;20055;-61
2023/01/29 01:58:10;;;;;;;25.35;14.23;;;;;;;0.43;100.00;102820.09;5054524;28;20049;-62
2023/01/29 02:00:40;;;;;;;23.85;12.73;;;;;;;0.45;100.00;102830.47;5053477;28;20049;-61
2023/01/29 02:11:38;;;;;;;;;;;;;;;0.45;100.00;102836.53;5053948;28;20053;-61
2023/01/29 02:14:07;;;;;;;25.45;13.07;;;;;;;0.44;100.00;102842.56;5054438;28;19964;-62
2023/01/29 02:16:37;;;;;;;26.90;15.18;;;;;;;0.46;100.00;102840.88;5054663;28;20041;-61
2023/01/29 02:19:14;;;;;;;27.45;14.63;;;;;;;0.43;100.00;102838.22;5054460;28;20048;-61
2023/01/29 02:22:15;;;;;;;27.92;14.40;;;;;;;0.44;100.00;102833.94;5054325;28;20049;-62
2023/01/29 02:25:20;;;;;;;24.23;13.50;;;;;;;0.50;100.00;102839.16;5050735;28;20053;-61
2023/01/29 02:28:15;;;;;;;26.45;14.95;;;;;;;0.40;100.00;102830.44;5051264;28;20052;-62
2023/01/29 02:30:52;;;;;;;25.13;14.82;;;;;;;0.36;100.00;102836.44;5054511;28;20049;-62
2023/01/29 02:33:31;;;;;;;26.13;14.80;;;;;;;0.38;100.00;102832.13;5053902;28;20132;-62
2023/01/29 02:36:12;;;;;;;24.13;13.27;;;;;;;0.42;100.00;102835.63;5054074;28;20048;-62
2023/01/29 02:38:47;;;;;;;26.13;14.73;;;;;;;0.40;100.00;102838.22;5054056;28;20546;-62
2023/01/29 02:41:23;;;;;;;25.08;14.23;;;;;;;0.35;100.00;102828.66;5053310;28;20045;-62
2023/01/29 02:43:57;;;;;;;28.08;15.38;;;;;;;0.30;100.00;102816.56;5053558;28;20124;-62
2023/01/29 02:46:35;;;;;;;25.40;14.52;;;;;;;0.29;100.00;102819.13;5053950;28;20112;-62
2023/01/29 02:49:10;;;;;;;26.90;14.65;;;;;;;0.31;100.00;102830.34;5053770;28;21081;-62
2023/01/29 02:51:44;;;;;;;24.55;13.95;;;;;;;0.27;100.00;102831.19;5050248;28;20057;-62
2023/01/29 02:54:20;;;;;;;27.92;14.35;;;;;;;0.22;100.00;102832.84;5048707;28;20044;-62
2023/01/29 02:56:53;;;;;;;28.83;15.27;;;;;;;0.14;100.00;102831.06;5053619;28;20489;-62
2023/01/29 02:59:29;;;;;;;26.55;14.98;;;;;;;0.16;100.00;102831.94;5053516;28;20068;-62
2023/01/29 03:02:03;;;;;;;26.67;14.90;;;;;;;0.19;100.00;102833.69;5053578;28;20041;-62
2023/01/29 03:04:37;;;;;;;28.42;14.55;;;;;;;0.21;100.00;102844.06;5053435;28;20494;-61
2023/01/29 03:07:21;;;;;;;26.98;14.32;;;;;;;0.24;100.00;102849.28;5053176;28;20510;-61
2023/01/29 03:09:53;;;;;;;26.13;14.73;;;;;;;0.22;100.00;102850.97;5053326;28;20051;-61
2023/01/29 03:12:32;;;;;;;28.27;15.40;;;;;;;0.23;100.00;102842.34;5049308;28;20056;-61
2023/01/29 03:15:15;;;;;;;25.35;14.18;;;;;;;0.26;100.00;102839.78;5049697;28;20052;-62
2023/01/29 03:17:49;;;;;;;26.92;14.77;;;;;;;0.26;100.00;102843.25;5053687;28;20052;-61
2023/01/29 03:20:24;;;;;;;26.75;14.23;;;;;;;0.24;100.00;102841.50;5053307;28;20091;-62
2023/01/29 03:22:56;;;;;;;27.08;14.90;;;;;;;0.25;100.00;102830.31;5051367;28;20079;-62
2023/01/29 03:33:54;;;;;;;27.23;14.77;;;;;;;0.29;100.00;102811.38;5052956;28;20059;-62
2023/01/29 03:36:38;;;;;;;24.88;14.55;;;;;;;0.27;100.00;102802.69;5052805;28;20128;-62
2023/01/29 03:39:08;;;;;;;24.50;13.95;;;;;;;0.27;100.00;102795.81;5052198;28;20053;-62
2023/01/29 03:41:40;;;;;;;27.95;15.65;;;;;;;0.17;100.00;102792.25;5052829;28;20561;-61
2023/01/29 03:44:14;;;;;;;25.67;14.95;;;;;;;0.06;100.00;102783.53;5052747;28;20056;-63
2023/01/29 03:46:53;;;;;;;27.52;15.55;;;;;;;0.10;100.00;102785.28;5052946;28;20052;-63
2023/01/29 03:49:32;;;;;;;28.77;16.00;;;;;;;0.18;100.00;102793.16;5052788;28;20045;-61
2023/01/29 03:52:04;;;;;;;28.25;14.77;;;;;;;0.09;100.00;102783.56;5050188;28;20534;-61
2023/01/29 03:54:44;;;;;;;28.05;14.85;;;;;;;0.09;100.00;102775.78;5048604;28;20135;-61
2023/01/29 03:57:19;;;;;;;26.63;14.82;;;;;;;0.12;100.00;102772.38;5052402;28;20049;-62
2023/01/29 03:59:54;;;;;;;27.88;15.48;;;;;;;0.19;100.00;102773.28;5052504;28;20048;-62
2023/01/29 04:02:28;;;;;;;30.55;14.98;;;;;;;0.24;100.00;102769.03;5052811;28;20041;-61
2023/01/29 04:05:02;;;;;;;26.60;14.75;;;;;;;0.24;100.00;102775.06;5052382;28;20055;-62
2023/01/29 04:07:32;;;;;;;26.77;14.52;;;;;;;0.26;100.00;102769.91;5051467;28;20424;-61
2023/01/29 04:10:05;;;;;;;29.63;15.60;;;;;;;0.25;100.00;102774.22;5051490;28;20550;-62
2023/01/29 04:12:38;;;;;;;28.60;15.13;;;;;;;0.27;100.00;102789.75;5049389;28;20059;-62
2023/01/29 04:15:11;;;;;;;28.50;15.38;;;;;;;0.28;100.00;102786.31;5050984;28;20048;-62
2023/01/29 04:17:43;;;;;;;29.08;15.80;;;;;;;0.28;100.00;102791.50;5052354;28;20064;-61
2023/01/29 04:20:12;;;;;;;26.73;14.90;;;;;;;0.27;100.00;102779.41;5051123;28;20407;-61
2023/01/29 04:22:44;;;;;;;26.38;14.93;;;;;;;0.27;100.00;102771.63;5048375;28;20076;-62
2023/01/29 04:25:17;;;;;;;26.63;14.70;;;;;;;0.32;100.00;102757.88;5049719;28;20497;-61
2023/01/29 04:27:53;;;;;;;28.55;14.30;;;;;;;0.31;100.00;102750.09;5049471;28;20518;-61
2023/01/29 04:30:30;;;;;;;25.75;14.88;;;;;;;0.26;100.00;102744.03;5047678;28;20656;-62
2023/01/29 04:33:08;;;;;;;28.73;15.57;;;;;;;0.30;100.00;102731.13;5049698;28;20086;-61
2023/01/29 04:35:52;;;;;;;26.73;14.52;;;;;;;0.32;100.00;102744.09;5048395;28;20447;-61
2023/01/29 04:38:34;;;;;;;29.15;16.45;;;;;;;0.32;100.00;102736.31;5050800;28;20098;-61
2023/01/29 04:41:11;;;;;;;29.63;16.38;;;;;;;0.36;100.00;102738.06;5052078;28;20045;-62
2023/01/29 04:43:47;;;;;;;29.05;15.90;;;;;;;0.35;100.00;102744.09;5051788;28;20084;-62
2023/01/29 04:46:19;;;;;;;29.02;15.68;;;;;;;0.37;100.00;102744.09;5047878;28;20158;-62
2023/01/29 04:49:05;;;;;;;29.63;16.90;;;;;;;0.43;100.00;102746.75;5048598;28;20071;-61
2023/01/29 04:51:43;;;;;;;31.92;16.63;;;;;;;0.43;100.00;102745.03;5050798;28;20037;-62
2023/01/29 04:54:20;;;;;;;29.40;16.63;;;;;;;0.43;100.00;102744.16;5047430;28;20111;-62
2023/01/29 04:56:55;;;;;;;28.35;14.93;;;;;;;0.42;100.00;102745.88;5050422;28;20045;-61
2023/01/29 04:59:27;;;;;;;28.67;15.77;;;;;;;0.46;100.00;102733.81;5051558;28;20430;-62
2023/01/29 05:01:55;;;;;;;;;;;;;;;0.46;100.00;102736.41;5048304;28;20037;-61
2023/01/29 05:04:27;;;;;;;29.27;15.25;;;;;;;0.44;100.00;102728.63;5049413;28;19975;-61
2023/01/29 05:06:56;;;;;;;26.70;15.45;;;;;;;0.47;100.00;102736.41;5052215;28;20045;-61
2023/01/29 05:09:25;;;;;;;27.17;15.38;;;;;;;0.39;100.00;102734.66;5048777;28;20053;-62
2023/01/29 05:11:55;;;;;;;31.33;15.35;;;;;;;0.37;100.00;102721.69;5048642;28;20051;-61
2023/01/29 05:14:29;;;;;;;28.15;15.38;;;;;;;0.41;100.00;102733.81;5050590;28;20426;-61
2023/01/29 05:17:02;;;;;;;27.52;15.07;;;;;;;0.42;100.00;102726.88;5047738;28;20061;-61
2023/01/29 05:19:31;;;;;;;24.67;14.40;;;;;;;0.42;100.00;102727.75;5051850;28;20040;-62
2023/01/29 05:22:00;;;;;;;27.92;15.00;;;;;;;0.40;100.00;102718.25;5055490;28;20523;-63
2023/01/29 05:24:28;;;;;;;29.75;15.52;;;;;;;0.45;100.00;102709.66;5050994;28;20053;-61
2023/01/29 05:29:46;;;;;;;25.02;13.98;;;;;;;0.42;100.00;102716.53;5055411;28;20048;-61
2023/01/29 05:32:14;;;;;;;30.70;16.35;;;;;;;0.43;100.00;102723.47;5055119;28;20049;-61
2023/01/29 05:34:44;;;;;;;28.63;16.70;;;;;;;0.48;100.00;102725.22;5051782;28;20056;-61
2023/01/29 05:37:12;;;;;;;27.08;15.43;;;;;;;0.42;100.00;102725.16;5051371;28;20111;-61
2023/01/29 05:39:40;;;;;;;28.38;16.27;;;;;;;0.46;100.00;102726.94;5055216;28;20049;-61
2023/01/29 05:42:08;;;;;;;26.85;14.98;;;;;;;0.47;100.00;102740.75;5055085;28;20508;-61
2023/01/29 05:44:36;;;;;;;27.95;15.25;;;;;;;0.49;100.00;102744.19;5054882;28;20129;-61
2023/01/29 05:47:04;;;;;;;31.00;17.17;;;;;;;0.49;100.00;102750.25;5054975;28;20128;-61
2023/01/29 05:49:32;;;;;;;28.02;16.45;;;;;;;0.52;100.00;102753.72;5055061;28;20783;-62
2023/01/29 05:52:02;;;;;;;32.60;16.50;;;;;;;0.53;100.00;102745.94;5054865;28;20102;-61
2023/01/29 05:54:30;;;;;;;29.30;16.38;;;;;;;0.50;100.00;102741.66;5054863;28;20040;-62
2023/01/29 05:57:01;;;;;;;31.50;16.40;;;;;;;0.53;100.00;102748.53;5050832;28;20073;-61
2023/01/29 05:59:30;;;;;;;28.30;16.23;;;;;;;0.54;100.00;102742.50;5050928;28;20049;-62
2023/01/29 06:01:58;;;;;;;30.75;16.20;;;;;;;0.52;100.00;102751.13;5054128;28;20106;-61
2023/01/29 06:04:26;;;;;;;32.80;16.63;;;;;;;0.49;100.00;102739.91;5050374;28;20450;-61
2023/01/29 06:06:54;;;;;;;29.30;16.20;;;;;;;0.55;100.00;102727.88;5051952;28;20087;-62
2023/01/29 06:09:24;;;;;;;26.88;16.67;;;;;;;0.47;100.00;102717.44;5054623;28;20098;-62
2023/01/29 06:11:52;;;;;;;29.88;16.48;;;;;;;0.45;100.00;102712.25;5054610;28;20037;-61
2023/01/29 06:14:20;;;;;;;32.97;18.42;;;;;;;0.37;100.00;102708.75;5054373;28;20492;-61
2023/01/29 06:16:48;;;;;;;31.05;16.70;;;;;;;0.43;100.00;102718.28;5054785;28;20045;-61
2023/01/29 06:19:17;;;;;;;27.80;16.40;;;;;;;0.47;100.00;102723.47;5054448;28;20041;-61
2023/01/29 06:21:45;;;;;;;30.70;17.08;;;;;;;0.46;100.00;102719.19;5052342;28;20517;-61
2023/01/29 06:24:13;;;;;;;27.05;16.63;;;;;;;0.49;100.00;102708.84;5049817;28;20041;-61
2023/01/29 06:26:45;;;;;;;29.10;16.40;;;;;;;0.49;100.00;102706.25;5053706;28;20094;-61
2023/01/29 06:29:13;;;;;;;32.85;17.52;;;;;;;0.49;100.00;102716.59;5053732;28;20048;-61
2023/01/29 06:31:41;;;;;;;32.58;17.00;;;;;;;0.46;100.00;102701.06;5054010;28;20139;-61
2023/01/29 06:34:10;;;;;;;29.90;16.50;;;;;;;0.49;100.00;102701.06;5051730;28;20060;-61
2023/01/29 06:36:40;;;;;;;32.10;16.55;;;;;;;0.50;100.00;102710.56;5049832;28;20455;-61
2023/01/29 06:39:08;;;;;;;31.88;17.45;;;;;;;0.48;100.00;102707.09;5052514;28;20098;-62
2023/01/29 06:41:36;;;;;;;30.58;16.65;;;;;;;0.48;100.00;102688.97;5050577;28;20102;-61
2023/01/29 06:44:06;;;;;;;30.08;16.38;;;;;;;0.47;100.00;102687.22;5050821;28;20123;-62
2023/01/29 06:46:34;;;;;;;33.35;16.52;;;;;;;0.46;100.00;102706.22;5053790;28;20053;-62
2023/01/29 06:49:02;;;;;;;31.95;17.98;;;;;;;0.48;100.00;102707.09;5053876;28;20087;-62
2023/01/29 06:51:30;;;;;;;29.55;15.93;;;;;;;0.50;100.00;102700.22;5053754;28;20103;-61
2023/01/29 06:53:58;;;;;;;33.38;17.85;;;;;;;0.48;100.00;102704.50;5049857;28;20779;-63
2023/01/29 06:56:26;;;;;;;29.35;16.77;;;;;;;0.53;100.00;102711.44;5049858;28;20389;-61
2023/01/29 06:58:55;;;;;;;28.67;15.70;;;;;;;0.53;100.00;102709.69;5053618;28;20037;-62
2023/01/29 07:01:24;;;;;;;28.30;16.48;;;;;;;0.54;100.00;102714.03;5053594;28;20048;-61
2023/01/29 07:04:03;;;;;;;29.10;16.52;;;;;;;0.58;100.00;102714.94;5053422;28;20128;-64
2023/01/29 07:06:31;;;;;;;30.55;15.45;;;;;;;0.47;100.00;102710.53;5052767;28;20140;-63
2023/01/29 07:09:00;;;;;;;28.73;16.80;;;;;;;0.44;100.00;102705.34;5049258;28;20044;-63
2023/01/29 07:11:28;;;;;;;32.17;16.67;;;;;;;0.44;100.00;102700.16;5050692;28;20047;-63
2023/01/29 07:13:56;;;;;;;27.15;16.58;;;;;;;0.48;100.00;102691.56;5053610;28;20037;-63
2023/01/29 07:16:26;;;;;;;35.63;16.77;;;;;;;0.45;100.00;102693.25;5053390;28;20037;-63
2023/01/29 07:18:54;;;;;;;32.58;17.48;;;;;;;0.53;100.00;102699.34;5052834;28;20037;-63
2023/01/29 07:21:22;;;;;;;28.00;15.65;;;;;;;0.55;100.00;102694.19;5048484;28;20500;-63
2023/01/29 07:23:51;;;;;;;28.83;16.40;;;;;;;0.57;100.00;102682.97;5050665;28;20049;-62
2023/01/29 07:26:19;;;;;;;29.25;15.45;;;;;;;0.60;100.00;102689.88;5053225;28;20053;-63
2023/01/29 07:28:47;;;;;;;27.95;15.50;;;;;;;0.65;100.00;102690.78;5053118;28;20480;-62
2023/01/29 07:31:15;;;;;;;30.65;17.10;;;;;;;0.66;100.00;102687.34;5049765;28;20446;-61
2023/01/29 07:33:45;;;;;;;30.60;16.73;;;;;;;0.67;100.00;102683.91;5049860;28;20045;-61
2023/01/29 07:36:14;;;;;;;29.83;16.85;;;;;;;0.66;100.00;102692.53;5052664;28;20057;-62
2023/01/29 07:38:42;;;;;;;31.77;17.15;;;;;;;0.66;100.00;102702.91;5052858;28;20106;-61
2023/01/29 07:41:11;;;;;;;32.25;18.45;;;;;;;0.66;100.00;102700.31;5052184;28;20049;-62
2023/01/29 07:43:39;;;;;;;33.15;17.90;;;;;;;0.71;100.00;102706.38;5053064;28;20124;-62
2023/01/29 07:46:08;;;;;;;32.67;17.23;;;;;;;0.73;100.00;102714.16;5052574;28;20543;-63
2023/01/29 07:48:36;;;;;;;28.88;16.70;;;;;;;0.72;100.00;102705.50;5052764;28;20045;-62
2023/01/29 07:51:06;;;;;;;29.65;16.75;;;;;;;0.72;100.00;102699.47;5050617;28;20044;-61
2023/01/29 07:53:34;;;;;;;29.83;17.48;;;;;;;0.72;100.00;102697.72;5048443;28;20056;-62
2023/01/29 07:56:02;;;;;;;32.03;17.90;;;;;;;0.73;100.00;102701.22;5050824;28;20112;-62
2023/01/29 07:58:30;;;;;;;31.05;17.80;;;;;;;0.72;100.00;102686.50;5052478;28;20060;-61
2023/01/29 08:00:59;;;;;;;31.42;17.13;;;;;;;0.72;100.00;102683.94;5052696;28;20474;-62
2023/01/29 08:03:27;;;;;;;32.13;17.80;;;;;;;0.70;100.00;102670.97;5052416;28;20052;-62
2023/01/29 08:05:57;;;;;;;31.02;17.25;;;;;;;0.72;100.00;102668.38;5052272;28;20056;-62
2023/01/29 08:08:27;;;;;;;30.33;15.68;;;;;;;0.72;100.00;102653.69;5048425;28;20048;-62
2023/01/29 08:10:55;;;;;;;30.15;17.52;;;;;;;0.78;100.00;102642.53;5048696;28;20079;-62
2023/01/29 08:13:23;;;;;;;29.42;16.38;;;;;;;0.79;100.00;102637.34;5051425;28;20060;-62
2023/01/29 08:15:51;;;;;;;32.63;17.38;;;;;;;0.86;100.00;102645.13;5052543;28;20123;-62
2023/01/29 08:18:19;;;;;;;32.00;17.33;;;;;;;0.81;100.00;102661.53;5052268;28;20045;-62
2023/01/29 08:20:47;;;;;;;32.15;17.08;;;;;;;0.81;100.00;102658.94;5052823;28;20452;-62
2023/01/29 08:23:16;;;;;;;30.92;17.23;;;;;;;0.79;100.00;102655.47;5052238;28;20487;-62
2023/01/29 08:25:45;;;;;;;34.33;18.33;;;;;;;0.89;100.00;102648.59;5051937;28;20048;-62
2023/01/29 08:28:13;;;;;;;32.63;17.88;;;;;;;0.87;100.00;102639.94;5048016;28;20084;-62
2023/01/29 08:30:42;;;;;;;30.77;17.58;;;;;;;0.89;100.00;102642.56;5050325;28;20049;-62
2023/01/29 08:33:11;;;;;;;29.60;17.42;;;;;;;0.97;100.00;102638.28;5052078;28;20506;-62
2023/01/29 08:35:40;;;;;;;30.83;17.50;;;;;;;0.95;100.00;102638.25;5052096;28;20056;-62
2023/01/29 08:38:09;;;;;;;32.75;16.27;;;;;;;0.99;100.00;102634.81;5048531;28;20045;-62
2023/01/29 08:40:37;;;;;;;30.27;16.42;;;;;;;1.04;100.00;102634.84;5048211;28;20037;-62
2023/01/29 08:43:08;;;;;;;29.52;17.92;;;;;;;1.08;100.00;102641.78;5052070;28;20419;-62
2023/01/29 08:45:39;;;;;;;29.48;16.65;;;;;;;1.11;100.00;102628.81;5052121;28;20053;-62
2023/01/29 08:48:08;;;;;;;27.40;16.38;;;;;;;1.08;100.00;102626.22;5052045;28;20129;-62
2023/01/29 08:50:36;;;;;;;28.95;17.23;;;;;;;1.07;100.00;102616.72;5051928;28;20049;-62
2023/01/29 08:53:07;;;;;;;30.08;16.35;;;;;;;1.12;100.00;102614.16;5052684;28;20049;-62
2023/01/29 08:55:36;;;;;;;26.85;16.45;;;;;;;1.12;100.00;102607.22;5051859;28;20072;-62
2023/01/29 08:58:05;;;;;;;30.15;16.08;;;;;;;1.15;100.00;102607.22;5054181;28;20064;-62
2023/01/29 09:00:35;;;;;;;29.05;15.82;;;;;;;1.17;100.00;102609.81;5055694;28;20037;-62
2023/01/29 09:03:03;;;;;;;31.08;16.77;;;;;;;1.33;100.00;102623.69;5056008;28;20471;-62
2023/01/29 09:05:32;;;;;;;33.08;17.27;;;;;;;1.30;100.00;102615.91;5055537;28;20042;-62
2023/01/29 09:08:00;;;;;;;29.27;16.52;;;;;;;1.30;100.00;102615.91;5051908;28;20043;-62
2023/01/29 09:10:28;;;;;;;31.98;16.88;;;;;;;1.38;100.00;102613.31;5052370;28;20041;-62
2023/01/29 09:12:56;;;;;;;28.52;16.15;;;;;;;1.35;100.00;102609.00;5055270;28;20059;-62
2023/01/29 09:15:24;;;;;;;30.40;16.25;;;;;;;1.36;100.00;102608.13;5055518;28;20049;-62
2023/01/29 09:17:54;;;;;;;29.48;16.25;;;;;;;1.40;100.00;102621.97;5055543;28;20056;-62
2023/01/29 09:20:22;;;;;;;32.88;16.95;;;;;;;1.40;100.00;102621.97;5055534;28;20051;-62
2023/01/29 09:22:52;;;;;;;27.92;16.33;;;;;;;1.43;100.00;102621.97;5055560;28;20045;-62
2023/01/29 09:25:20;;;;;;;29.33;16.42;;;;;;;1.47;100.00;102622.00;5055830;28;20041;-62
2023/01/29 09:27:48;;;;;;;29.90;16.02;;;;;;;1.50;100.00;102619.41;5053235;28;20514;-62
2023/01/29 09:30:17;;;;;;;27.92;16.48;;;;;;;1.56;100.00;102625.47;5050456;28;20044;-62
2023/01/29 09:32:46;;;;;;;28.67;16.13;;;;;;;1.62;100.00;102622.84;5055203;28;20072;-62
2023/01/29 09:35:23;;;;;;;28.38;16.23;;;;;;;1.55;100.00;102618.53;5051053;28;20103;-62
2023/01/29 09:37:51;;;;;;;28.98;16.17;;;;;;;1.59;100.00;102622.84;5052455;28;20049;-62
2023/01/29 09:40:26;;;;;;;29.35;17.00;;;;;;;1.64;100.00;102619.41;5067868;28;20124;-62
2023/01/29 09:43:00;;;;;;;28.27;15.18;;;;;;;1.62;100.00;102617.66;5051921;28;20037;-62
2023/01/29 09:45:30;;;;;;;26.98;15.95;;;;;;;1.70;100.00;102615.94;5055032;28;20380;-62
2023/01/29 09:48:00;;;;;;;28.75;16.10;;;;;;;1.79;100.00;102612.50;5055090;28;20698;-62
2023/01/29 09:50:34;;;;;;;28.48;15.43;;;;;;;1.76;100.00;102625.44;5054887;28;20110;-62
2023/01/29 09:53:09;;;;;;;26.90;16.00;;;;;;;1.77;100.00;102627.19;5054818;28;20048;-62
2023/01/29 09:55:42;;;;;;;26.95;15.82;;;;;;;1.88;100.00;102614.22;5051085;28;20049;-62
2023/01/29 09:58:18;;;;;;;25.27;15.30;;;;;;;1.86;100.00;102624.59;5051874;28;20514;-62
2023/01/29 10:00:58;;;;;;;27.95;16.60;;;;;;;1.85;100.00;102631.53;5054630;28;20144;-62
2023/01/29 10:03:49;;;;;;;29.65;16.38;;;;;;;1.88;100.00;102614.22;5054819;28;20052;-62
2023/01/29 10:06:32;;;;;;;28.35;15.95;;;;;;;1.92;100.00;102618.53;5052366;28;20135;-62
2023/01/29 10:09:44;;;;;;;31.58;15.95;;;;;;;1.96;100.00;102612.47;5050914;28;20488;-62
2023/01/29 10:12:26;;;;;;;26.33;16.05;;;;;;;1.97;100.00;102614.22;5044742;28;20057;-62
2023/01/29 10:15:03;;;;;;;28.00;15.60;;;;;;;1.97;100.00;102611.63;5053421;28;20049;-63
2023/01/29 10:17:47;;;;;;;26.98;15.80;;;;;;;2.00;100.00;102611.59;5053289;28;20041;-63
2023/01/29 10:20:38;;;;;;;29.13;16.08;;;;;;;2.06;100.00;102611.63;5050076;28;20132;-62
2023/01/29 10:23:24;;;;;;;28.13;15.93;;;;;;;2.13;100.00;102608.13;5054370;28;20044;-52
2023/01/29 10:25:53;;;;;;;28.52;16.30;;;;;;;2.14;100.00;102607.28;5054421;28;20045;-52
2023/01/29 10:28:27;;;;;;;27.05;14.82;;;;;;;2.13;100.00;102602.09;5054090;28;20098;-62
2023/01/29 10:31:00;;;;;;;26.10;15.70;;;;;;;2.17;100.00;102606.41;5054051;28;20051;-62
2023/01/29 10:33:34;;;;;;;24.48;14.80;;;;;;;2.17;100.00;102601.22;5052807;28;20076;-62
2023/01/29 10:36:28;;;;;;;25.90;15.63;;;;;;;2.15;100.00;102600.34;5049258;28;20067;-62
2023/01/29 10:38:58;;;;;;;27.02;14.32;;;;;;;2.19;100.00;102600.31;5052523;28;20044;-62
2023/01/29 10:41:42;;;;;;;28.95;16.58;;;;;;;2.24;100.00;102599.47;5054023;28;20593;-62
2023/01/29 10:44:35;;;;;;;23.23;14.30;;;;;;;2.25;100.00;102594.28;5053882;28;20682;-63
2023/01/29 10:47:19;;;;;;;24.30;14.55;;;;;;;2.30;100.00;102586.47;5053967;28;20055;-62
2023/01/29 10:50:20;;;;;;;23.08;14.25;;;;;;;2.32;100.00;102584.75;5053834;28;20429;-62
2023/01/29 10:53:03;;;;;;;23.80;14.10;;;;;;;2.35;100.00;102576.94;5052370;28;20488;-63
2023/01/29 10:55:51;;;;;;;24.58;14.20;;;;;;;2.32;100.00;102566.56;5048463;28;20063;-62
2023/01/29 10:58:27;;;;;;;24.67;13.73;;;;;;;2.36;100.00;102563.09;5053631;28;20049;-62
2023/01/29 11:00:55;;;;;;;22.63;13.38;;;;;;;2.39;100.00;102560.47;5051470;28;20052;-62
2023/01/29 11:03:25;;;;;;;24.52;14.13;;;;;;;2.41;100.00;102558.72;5049143;28;20140;-63
2023/01/29 11:06:02;;;;;;;21.85;14.00;;;;;;;2.37;100.00;102554.41;5052084;28;20053;-63
2023/01/29 11:08:37;;;;;;;22.92;14.05;;;;;;;2.40;100.00;102545.75;5053498;28;20049;-63
2023/01/29 11:11:12;;;;;;;22.75;14.10;;;;;;;2.45;100.00;102544.00;5052563;28;20053;-62
2023/01/29 11:13:44;;;;;;;23.95;14.80;;;;;;;2.44;100.00;102540.53;5050166;28;20059;-62
2023/01/29 11:16:13;;;;;;;25.95;14.52;;;;;;;2.49;100.00;102533.56;5052041;28;20492;-62
2023/01/29 11:18:53;;;;;;;25.75;14.38;;;;;;;2.46;100.00;102525.81;5053207;28;20540;-63
2023/01/29 11:21:23;;;;;;;23.88;14.55;;;;;;;2.47;100.00;102518.91;5048518;28;20045;-63
2023/01/29 11:24:05;;;;;;;24.40;14.38;;;;;;;2.49;100.00;102518.00;5051409;28;20476;-63
2023/01/29 11:26:38;;;;;;;21.87;14.03;;;;;;;2.51;100.00;102516.25;5053169;28;20493;-62
2023/01/29 11:29:31;;;;;;;26.15;14.63;;;;;;;2.43;100.00;102501.59;5052989;28;20760;-62
2023/01/29 11:32:02;;;;;;;26.77;15.20;;;;;;;2.41;100.00;102501.59;5052982;28;20055;-62
2023/01/29 11:34:31;;;;;;;22.45;14.02;;;;;;;2.48;100.00;102485.13;5051087;28;20052;-63
2023/01/29 11:37:01;;;;;;;24.60;14.38;;;;;;;2.52;100.00;102483.34;5049231;28;20106;-62
2023/01/29 11:39:31;;;;;;;20.23;13.32;;;;;;;2.54;100.00;102481.63;5051697;28;20053;-62
2023/01/29 11:42:02;;;;;;;26.88;14.70;;;;;;;2.57;100.00;102481.59;5052917;28;20045;-63
2023/01/29 11:44:33;;;;;;;24.63;14.63;;;;;;;2.65;100.00;102473.78;5052596;28;20057;-63
2023/01/29 11:47:18;;;;;;;24.65;14.23;;;;;;;2.58;100.00;102469.47;5052580;28;20480;-62
2023/01/29 11:49:48;;;;;;;22.83;14.80;;;;;;;2.60;100.00;102465.97;5052437;28;20554;-62
2023/01/29 11:52:19;;;;;;;23.45;14.50;;;;;;;2.68;100.00;102465.94;5051693;28;20052;-63
2023/01/29 11:54:50;;;;;;;23.58;15.40;;;;;;;2.84;100.00;102458.94;5048271;28;20515;-62
2023/01/29 11:57:28;;;;;;;23.45;15.50;;;;;;;2.75;100.00;102459.84;5050130;28;20060;-62
2023/01/29 12:00:00;;;;;;;26.23;15.63;;;;;;;2.75;100.00;102457.22;5052509;28;20431;-61
2023/01/29 12:02:36;;;;;;;25.02;15.20;;;;;;;2.79;100.00;102450.28;5052481;28;20045;-62